»·PEaware :: N416JK KMRY-KBFL

N416JK :: KMRY-KBFL

FLIGHT INFORMATION

Flight Status: Arrived
Operator: Privately registered:
United States
More flights under this callsign
Pilot: John K. (4202)
Aircraft: Unknown
(EPIC)
More flights by this aircraft type
Origin: KMRY Monterey Peninsula
United States
Destination: KBFL Meadows
United States
More flights between these airports :: More routes between these airports
Route: +MRY4 SNS V137 AVE V248
File this flight plan on PilotEdge
Remarks:
Altitude:
(Current/Filed)
11,000ft
Speed:
(Current/Filed)
240kts
Departed: 26-Sep-17 08:52 AM
Arrived: 26-Sep-17 09:32 AM
Distance/Time
Traveled:
152nm/0:39
Distance/Time
To Go:
Arrived

Flight Plot

Page will automatically refresh every two minutes.

Flight plan parsing failed; only flown route is shown


Map Options




Map Legend


Flown Route
Filed Route
Departure Airport
Arrival Airport
Navaid (VOR, NDB)
Fix

Horizontal Profiles

Position Reports

Time Latitude Longitude Heading Altitude Ground
Speed
26-Sep-17 08:49 36.589111 -121.853477 110 259ft 0kts
26-Sep-17 08:50 36.589111 -121.853477 110 259ft 0kts
26-Sep-17 08:51 36.589111 -121.853477 110 259ft 0kts
26-Sep-17 08:52 36.588718 -121.851964 111 259ft 31kts
26-Sep-17 08:53 36.584720 -121.840537 112 259ft 33kts
26-Sep-17 08:54 36.582921 -121.835257 101 259ft 0kts
26-Sep-17 08:55 36.583454 -121.833642 307 259ft 24kts
26-Sep-17 08:56 36.598744 -121.876126 294 1555ft 198kts
26-Sep-17 08:57 36.653778 -121.913964 342 2671ft 264kts
26-Sep-17 08:58 36.724418 -121.942555 345 3655ft 279kts
26-Sep-17 08:59 36.762663 -121.880256 113 4673ft 291kts
26-Sep-17 09:00 36.729077 -121.794370 113 5639ft 290kts
26-Sep-17 09:01 36.698392 -121.713950 112 6539ft 287kts
26-Sep-17 09:02 36.666096 -121.630007 112 7513ft 263kts
26-Sep-17 09:03 36.633499 -121.552425 117 8492ft 256kts
26-Sep-17 09:04 36.595750 -121.480319 119 9475ft 253kts
26-Sep-17 09:05 36.556148 -121.408009 119 10491ft 268kts
26-Sep-17 09:06 36.512353 -121.328950 120 11004ft 311kts
26-Sep-17 09:07 36.462321 -121.238999 121 11002ft 324kts
26-Sep-17 09:08 36.423333 -121.169000 121 10997ft 323kts
26-Sep-17 09:09 36.374392 -121.081271 121 11007ft 316kts
26-Sep-17 09:10 36.324918 -120.992834 122 10999ft 315kts
26-Sep-17 09:11 36.274999 -120.903888 122 11008ft 314kts
26-Sep-17 09:12 36.226427 -120.816778 123 11008ft 313kts
26-Sep-17 09:13 36.176982 -120.728972 123 11008ft 313kts
26-Sep-17 09:14 36.125738 -120.643055 130 11008ft 315kts
26-Sep-17 09:15 36.067002 -120.561715 130 11009ft 321kts
26-Sep-17 09:16 36.008472 -120.480015 129 11008ft 321kts
26-Sep-17 09:17 35.950297 -120.398839 130 11005ft 320kts
26-Sep-17 09:18 35.891344 -120.316765 130 11005ft 320kts
26-Sep-17 09:19 35.833603 -120.236715 129 11009ft 319kts
26-Sep-17 09:20 35.775262 -120.155865 130 11015ft 319kts
26-Sep-17 09:21 35.716844 -120.075099 130 11016ft 319kts
26-Sep-17 09:22 35.657911 -119.993806 129 11019ft 319kts
26-Sep-17 09:23 35.631686 -119.893770 100 11014ft 314kts
26-Sep-17 09:24 35.613774 -119.794345 100 11009ft 311kts
26-Sep-17 09:25 35.595113 -119.691949 100 11004ft 309kts
26-Sep-17 09:26 35.577584 -119.596436 100 9985ft 267kts
26-Sep-17 09:27 35.562121 -119.512391 100 8799ft 245kts
26-Sep-17 09:28 35.544395 -119.436908 108 7623ft 227kts
26-Sep-17 09:29 35.523827 -119.366639 108 6416ft 210kts
26-Sep-17 09:30 35.505946 -119.305087 109 5213ft 195kts
26-Sep-17 09:31 35.488686 -119.245679 110 3481ft 168kts
26-Sep-17 09:32 35.481179 -119.198696 87 2223ft 126kts
26-Sep-17 09:33 35.483113 -119.159443 100 1616ft 104kts
26-Sep-17 09:34 35.473629 -119.117023 114 1505ft 141kts
26-Sep-17 09:35 35.454589 -119.081243 133 803ft 115kts
26-Sep-17 09:36 35.440473 -119.063269 59 508ft 24kts
26-Sep-17 09:37 35.440778 -119.062594 82 508ft 11kts
26-Sep-17 09:38 35.432446 -119.052298 127 508ft 40kts
26-Sep-17 09:39 35.430603 -119.047637 127 508ft 0kts

Navigation Log

Ident Type
Flight plan parsing failed, navigation log unavailable